Time;durP1;ratioP1;P1;durP2;ratioP2;P2;SDS_P1;SDS_P2;PMS_P1;PMS_P2;Temp;Humidity;BMP_temperature;BMP_pressure;BME280_temperature;BME280_humidity;BME280_pressure;Samples;Min_cycle;Max_cycle;Signal;HPM_P1;HPM_P2
2021/07/28 00:00:35;;;;;;;;;9.75;9.75;;;;;;;;5059728;28;47059;-76
2021/07/28 00:03:00;;;;;;;;;10.00;9.00;;;;;;;;5041704;28;47221;-77
2021/07/28 00:05:25;;;;;;;;;11.25;10.00;;;;;;;;5041734;28;46782;-77
2021/07/28 00:07:51;;;;;;;;;11.50;9.75;;;;;;;;5059734;28;47035;-77
2021/07/28 00:10:16;;;;;;;;;11.75;11.50;;;;;;;;5059306;28;46763;-77
2021/07/28 00:12:42;;;;;;;;;13.00;11.50;;;;;;;;5059150;28;46834;-77
2021/07/28 00:15:07;;;;;;;;;15.00;13.50;;;;;;;;5040390;28;46830;-77
2021/07/28 00:17:36;;;;;;;;;7.75;5.75;;;;;;;;5041267;28;46983;-77
2021/07/28 00:20:05;;;;;;;;;15.25;12.75;;;;;;;;5059301;28;47047;-77
2021/07/28 00:25:21;;;;;;;;;10.50;9.75;;;;;;;;5059689;28;46913;-77
2021/07/28 00:27:46;;;;;;;;;13.00;9.75;;;;;;;;5058776;28;46894;-77
2021/07/28 00:30:12;;;;;;;;;11.75;11.75;;;;;;;;5059361;28;46961;-77
2021/07/28 00:32:37;;;;;;;;;8.75;7.00;;;;;;;;5059741;27;47019;-77
2021/07/28 00:35:03;;;;;;;;;8.75;7.00;;;;;;;;5072348;28;47008;-77
2021/07/28 00:37:28;;;;;;;;;9.25;7.00;;;;;;;;5058974;28;46877;-77
2021/07/28 00:39:53;;;;;;;;;10.75;10.25;;;;;;;;5059297;28;46869;-77
2021/07/28 00:42:18;;;;;;;;;11.00;9.50;;;;;;;;5058922;28;47068;-77
2021/07/28 00:44:44;;;;;;;;;11.00;8.25;;;;;;;;5059694;28;46963;-77
2021/07/28 00:47:11;;;;;;;;;6.50;4.50;;;;;;;;5059070;28;46843;-77
2021/07/28 00:49:36;;;;;;;;;7.25;6.75;;;;;;;;5059180;28;47132;-77
2021/07/28 00:52:02;;;;;;;;;8.25;6.50;;;;;;;;5059097;28;47084;-77
2021/07/28 00:54:29;;;;;;;;;6.75;4.75;;;;;;;;5059268;28;46753;-77
2021/07/28 00:56:54;;;;;;;;;8.50;6.50;;;;;;;;5058518;28;47470;-77
2021/07/28 00:59:20;;;;;;;;;8.00;7.25;;;;;;;;5058879;28;46792;-77
2021/07/28 01:01:45;;;;;;;;;6.50;6.00;;;;;;;;5059136;28;47421;-77
2021/07/28 01:04:11;;;;;;;;;5.75;5.75;;;;;;;;5047972;28;47007;-77
2021/07/28 01:06:36;;;;;;;;;7.25;5.50;;;;;;;;5079167;28;47549;-77
2021/07/28 01:09:01;;;;;;;;;6.25;5.75;;;;;;;;5079088;28;46789;-77
2021/07/28 01:11:27;;;;;;;;;7.75;6.75;;;;;;;;5060414;28;47194;-77
2021/07/28 01:13:55;;;;;;;;;6.75;6.00;;;;;;;;5079382;28;46982;-77
2021/07/28 01:16:22;;;;;;;;;6.75;6.75;;;;;;;;5078986;28;46857;-77
2021/07/28 01:18:48;;;;;;;;;6.75;6.75;;;;;;;;5079093;28;46805;-77
2021/07/28 01:21:13;;;;;;;;;6.75;5.50;;;;;;;;5078831;28;47037;-77
2021/07/28 01:23:40;;;;;;;;;6.75;6.50;;;;;;;;5058824;28;47097;-77
2021/07/28 01:26:06;;;;;;;;;7.75;6.50;;;;;;;;5058342;28;47099;-77
2021/07/28 01:28:33;;;;;;;;;6.50;6.50;;;;;;;;5058396;28;47080;-77
2021/07/28 01:31:13;;;;;;;;;6.75;5.75;;;;;;;;5058411;28;46909;-77
2021/07/28 01:33:39;;;;;;;;;4.75;4.75;;;;;;;;5047933;28;47238;-77
2021/07/28 01:36:05;;;;;;;;;5.75;4.25;;;;;;;;5062500;28;47851;-77
2021/07/28 01:38:31;;;;;;;;;5.50;5.50;;;;;;;;5058588;28;46919;-77
2021/07/28 01:40:58;;;;;;;;;6.25;3.00;;;;;;;;5058306;28;47095;-77
2021/07/28 01:43:24;;;;;;;;;4.50;4.25;;;;;;;;5058362;28;46901;-77
2021/07/28 01:45:49;;;;;;;;;5.75;5.75;;;;;;;;5058037;28;49850;-77
2021/07/28 01:48:15;;;;;;;;;5.50;5.00;;;;;;;;5040173;28;46787;-77
2021/07/28 01:50:42;;;;;;;;;6.50;5.75;;;;;;;;5058154;28;47130;-77
2021/07/28 01:53:07;;;;;;;;;6.75;6.75;;;;;;;;5058557;28;46787;-77
2021/07/28 01:55:33;;;;;;;;;8.00;7.25;;;;;;;;5039848;28;47654;-76
2021/07/28 01:57:59;;;;;;;;;7.50;5.50;;;;;;;;5057900;28;46917;-77
2021/07/28 02:00:24;;;;;;;;;7.25;4.50;;;;;;;;5058034;28;46834;-77
2021/07/28 02:02:49;;;;;;;;;5.00;5.00;;;;;;;;5058362;28;47212;-77
2021/07/28 02:05:15;;;;;;;;;6.75;4.75;;;;;;;;5039763;28;49425;-77
2021/07/28 02:07:40;;;;;;;;;4.50;4.50;;;;;;;;5058130;28;47205;-77
2021/07/28 02:10:06;;;;;;;;;2.25;2.25;;;;;;;;5057788;28;46960;-77
2021/07/28 02:12:31;;;;;;;;;5.25;4.75;;;;;;;;5057542;28;47075;-76
2021/07/28 02:14:57;;;;;;;;;5.25;4.00;;;;;;;;5057740;28;48122;-76
2021/07/28 02:17:22;;;;;;;;;6.00;4.75;;;;;;;;5058017;28;46956;-77
2021/07/28 02:19:47;;;;;;;;;5.75;4.00;;;;;;;;5057694;28;47173;-77
2021/07/28 02:22:13;;;;;;;;;3.50;3.50;;;;;;;;5064965;28;46871;-77
2021/07/28 02:24:39;;;;;;;;;5.50;4.00;;;;;;;;5057390;28;47505;-77
2021/07/28 02:27:04;;;;;;;;;3.50;3.50;;;;;;;;5057477;28;47090;-77
2021/07/28 02:29:31;;;;;;;;;5.50;3.75;;;;;;;;5057254;28;46909;-77
2021/07/28 02:31:56;;;;;;;;;6.25;4.00;;;;;;;;5057978;28;47030;-77
2021/07/28 02:34:21;;;;;;;;;4.25;2.25;;;;;;;;5070615;27;48014;-77
2021/07/28 02:36:47;;;;;;;;;3.00;3.00;;;;;;;;5039244;28;46981;-77
2021/07/28 02:39:12;;;;;;;;;4.00;2.75;;;;;;;;5056760;28;47025;-77
2021/07/28 02:41:37;;;;;;;;;3.00;2.75;;;;;;;;5057369;28;47120;-77
2021/07/28 02:44:03;;;;;;;;;2.00;1.75;;;;;;;;5057104;28;47598;-77
2021/07/28 02:46:28;;;;;;;;;1.75;1.75;;;;;;;;5057730;28;47015;-77
2021/07/28 02:48:53;;;;;;;;;2.25;1.75;;;;;;;;5057202;28;46918;-77
2021/07/28 02:51:19;;;;;;;;;3.00;2.00;;;;;;;;5057821;28;46929;-77
2021/07/28 02:53:44;;;;;;;;;0.75;0.00;;;;;;;;5057185;28;47657;-77
2021/07/28 02:56:09;;;;;;;;;1.25;1.25;;;;;;;;5057275;28;47036;-77
2021/07/28 02:58:35;;;;;;;;;3.75;2.25;;;;;;;;5057048;28;46763;-77
2021/07/28 03:01:00;;;;;;;;;1.75;1.75;;;;;;;;5039102;28;46795;-77
2021/07/28 03:03:25;;;;;;;;;2.00;2.00;;;;;;;;5057110;28;47803;-77
2021/07/28 03:05:50;;;;;;;;;0.75;0.75;;;;;;;;5057281;28;46952;-76
2021/07/28 03:08:16;;;;;;;;;2.50;1.75;;;;;;;;5057086;28;46959;-77
2021/07/28 03:10:42;;;;;;;;;5.25;3.75;;;;;;;;5057294;28;47100;-77
2021/07/28 03:13:07;;;;;;;;;4.00;3.00;;;;;;;;5056278;28;47645;-76
2021/07/28 03:15:32;;;;;;;;;4.25;3.00;;;;;;;;5057190;28;46871;-76
2021/07/28 03:17:57;;;;;;;;;2.00;1.75;;;;;;;;5057004;28;47178;-77
2021/07/28 03:20:23;;;;;;;;;4.00;3.25;;;;;;;;5057713;28;47058;-77
2021/07/28 03:22:48;;;;;;;;;3.50;3.50;;;;;;;;5063620;28;47761;-77
2021/07/28 03:25:13;;;;;;;;;1.50;1.50;;;;;;;;5056849;28;46960;-77
2021/07/28 03:27:39;;;;;;;;;3.25;3.25;;;;;;;;5056619;28;47390;-77
2021/07/28 03:30:04;;;;;;;;;3.00;2.50;;;;;;;;5056837;28;46930;-77
2021/07/28 03:32:30;;;;;;;;;4.00;3.25;;;;;;;;5056669;28;47064;-77
2021/07/28 03:34:55;;;;;;;;;3.75;3.50;;;;;;;;5070083;28;46896;-77
2021/07/28 03:37:20;;;;;;;;;1.50;1.50;;;;;;;;5056832;28;46845;-77
2021/07/28 03:39:46;;;;;;;;;0.50;0.50;;;;;;;;5056872;28;47191;-77
2021/07/28 03:42:11;;;;;;;;;2.75;1.75;;;;;;;;5038079;28;49598;-77
2021/07/28 03:44:36;;;;;;;;;2.25;1.00;;;;;;;;5056541;28;46841;-77
2021/07/28 03:47:02;;;;;;;;;2.25;0.50;;;;;;;;5056636;28;46826;-77
2021/07/28 03:49:27;;;;;;;;;2.00;2.00;;;;;;;;5056635;28;47127;-77
2021/07/28 03:51:52;;;;;;;;;0.75;0.75;;;;;;;;5059080;28;46988;-77
2021/07/28 03:54:18;;;;;;;;;1.50;1.50;;;;;;;;5059977;28;46991;-77
2021/07/28 03:56:43;;;;;;;;;4.00;3.25;;;;;;;;5059684;28;47135;-77
2021/07/28 03:59:08;;;;;;;;;4.00;4.00;;;;;;;;5059881;28;46802;-77
2021/07/28 04:01:33;;;;;;;;;3.50;3.00;;;;;;;;5059928;28;46999;-77
2021/07/28 04:03:59;;;;;;;;;3.50;3.50;;;;;;;;5059642;28;46801;-77
2021/07/28 04:06:24;;;;;;;;;5.50;4.00;;;;;;;;5060103;28;46798;-77
2021/07/28 04:08:49;;;;;;;;;4.00;4.00;;;;;;;;5059750;28;46800;-77
2021/07/28 04:11:15;;;;;;;;;2.25;2.25;;;;;;;;5059425;28;46981;-77
2021/07/28 04:13:40;;;;;;;;;4.50;3.00;;;;;;;;5059533;28;47051;-78
2021/07/28 04:16:05;;;;;;;;;5.00;4.25;;;;;;;;5059775;28;47132;-77
2021/07/28 04:18:31;;;;;;;;;4.50;4.50;;;;;;;;5059803;28;46962;-77
2021/07/28 04:20:57;;;;;;;;;3.25;2.75;;;;;;;;5064735;28;47098;-77
2021/07/28 04:23:22;;;;;;;;;3.00;3.00;;;;;;;;5060999;28;47172;-77
2021/07/28 04:25:47;;;;;;;;;4.75;3.75;;;;;;;;5041622;28;47051;-78
2021/07/28 04:28:12;;;;;;;;;6.00;4.00;;;;;;;;5059352;28;47032;-77
2021/07/28 04:30:38;;;;;;;;;3.50;3.50;;;;;;;;5059450;28;47197;-77
2021/07/28 04:33:03;;;;;;;;;3.00;3.00;;;;;;;;5063428;27;47166;-77
2021/07/28 04:35:28;;;;;;;;;3.00;3.00;;;;;;;;5068841;28;46969;-77
2021/07/28 04:37:54;;;;;;;;;5.00;3.25;;;;;;;;5059450;28;46956;-78
2021/07/28 04:40:19;;;;;;;;;5.50;4.00;;;;;;;;5041110;28;49860;-78
2021/07/28 04:42:44;;;;;;;;;3.75;2.50;;;;;;;;5040756;28;47479;-78
2021/07/28 04:45:10;;;;;;;;;4.00;2.25;;;;;;;;5059501;28;47104;-78
2021/07/28 04:47:35;;;;;;;;;3.00;3.00;;;;;;;;5059338;28;47068;-78
2021/07/28 04:50:00;;;;;;;;;4.00;3.00;;;;;;;;5059041;28;46885;-78
2021/07/28 04:52:26;;;;;;;;;3.50;3.00;;;;;;;;5059152;28;46759;-77
2021/07/28 04:54:52;;;;;;;;;4.00;3.00;;;;;;;;5059047;28;46912;-78
2021/07/28 04:57:17;;;;;;;;;2.50;2.25;;;;;;;;5058776;28;46968;-78
2021/07/28 04:59:43;;;;;;;;;3.00;3.00;;;;;;;;5058890;28;47681;-78
2021/07/28 05:02:08;;;;;;;;;7.00;6.00;;;;;;;;5058335;28;46915;-78
2021/07/28 05:04:33;;;;;;;;;3.25;2.00;;;;;;;;5040946;28;46848;-78
2021/07/28 05:06:58;;;;;;;;;4.75;4.75;;;;;;;;5059085;28;46692;-78
2021/07/28 05:09:24;;;;;;;;;4.75;4.75;;;;;;;;5058721;28;47858;-77
2021/07/28 05:11:49;;;;;;;;;2.25;2.25;;;;;;;;5058538;28;46849;-77
2021/07/28 05:14:14;;;;;;;;;3.00;3.00;;;;;;;;5058791;28;46830;-77
2021/07/28 05:16:40;;;;;;;;;4.00;4.00;;;;;;;;5059043;28;46875;-77
2021/07/28 05:19:05;;;;;;;;;2.00;2.00;;;;;;;;5058946;28;46922;-78
2021/07/28 05:21:30;;;;;;;;;5.25;5.25;;;;;;;;5066367;28;47100;-77
2021/07/28 05:23:55;;;;;;;;;2.75;2.75;;;;;;;;5059022;28;47010;-78
2021/07/28 05:26:21;;;;;;;;;3.00;2.00;;;;;;;;5058382;28;46901;-77
2021/07/28 05:28:46;;;;;;;;;3.00;3.00;;;;;;;;5058563;28;46948;-77
2021/07/28 05:31:13;;;;;;;;;3.00;3.00;;;;;;;;5058193;28;46823;-77
2021/07/28 05:33:38;;;;;;;;;3.00;3.00;;;;;;;;5067859;27;46940;-77
2021/07/28 05:36:04;;;;;;;;;4.25;4.25;;;;;;;;5062904;28;46925;-77
2021/07/28 05:38:29;;;;;;;;;3.50;3.00;;;;;;;;5040109;28;48335;-78
2021/07/28 05:40:55;;;;;;;;;3.75;2.75;;;;;;;;5057964;28;47059;-78
2021/07/28 05:43:22;;;;;;;;;6.50;3.50;;;;;;;;5058450;28;46818;-78
2021/07/28 05:45:49;;;;;;;;;3.75;3.00;;;;;;;;5058242;28;46817;-78
2021/07/28 05:48:14;;;;;;;;;3.25;3.25;;;;;;;;5058345;28;47015;-78
2021/07/28 05:50:39;;;;;;;;;4.50;3.00;;;;;;;;5057832;28;47027;-78
2021/07/28 05:53:05;;;;;;;;;3.00;3.00;;;;;;;;5058412;28;46918;-77
2021/07/28 05:55:30;;;;;;;;;4.00;4.00;;;;;;;;5058106;28;46737;-77
2021/07/28 05:57:58;;;;;;;;;2.00;2.00;;;;;;;;5057551;28;47876;-77
2021/07/28 06:00:23;;;;;;;;;3.00;2.00;;;;;;;;5057952;28;46959;-78
2021/07/28 06:02:49;;;;;;;;;4.50;3.00;;;;;;;;5058047;28;46969;-77
2021/07/28 06:05:14;;;;;;;;;3.00;3.00;;;;;;;;5058029;28;46850;-78
2021/07/28 06:07:39;;;;;;;;;5.50;3.75;;;;;;;;5057912;28;47043;-78
2021/07/28 06:10:05;;;;;;;;;5.00;3.75;;;;;;;;5057634;28;46906;-78
2021/07/28 06:12:30;;;;;;;;;2.00;2.00;;;;;;;;5057183;28;46932;-78
2021/07/28 06:14:55;;;;;;;;;5.50;3.00;;;;;;;;5057107;28;46838;-77
2021/07/28 06:17:21;;;;;;;;;2.50;2.50;;;;;;;;5058025;28;47892;-78
2021/07/28 06:19:46;;;;;;;;;2.00;2.00;;;;;;;;5057660;28;46794;-78
2021/07/28 06:22:11;;;;;;;;;3.00;3.00;;;;;;;;5065101;28;47155;-78
2021/07/28 06:24:37;;;;;;;;;4.50;3.25;;;;;;;;5057673;28;46918;-78
2021/07/28 06:27:03;;;;;;;;;5.75;3.00;;;;;;;;5057511;28;47936;-78
2021/07/28 06:29:29;;;;;;;;;2.50;2.00;;;;;;;;5057265;28;46894;-78
2021/07/28 06:31:54;;;;;;;;;7.00;5.00;;;;;;;;5057647;28;46877;-78
2021/07/28 06:34:20;;;;;;;;;4.25;3.00;;;;;;;;5071424;27;46829;-78
2021/07/28 06:36:45;;;;;;;;;2.25;2.00;;;;;;;;5057519;28;46997;-78
2021/07/28 06:39:11;;;;;;;;;5.50;3.50;;;;;;;;5057447;28;46881;-78
2021/07/28 06:41:36;;;;;;;;;1.25;1.25;;;;;;;;5057217;28;46963;-78
2021/07/28 06:44:02;;;;;;;;;2.50;2.25;;;;;;;;5057483;28;46921;-78
2021/07/28 06:46:27;;;;;;;;;1.25;1.25;;;;;;;;5057381;28;47605;-78
2021/07/28 06:48:52;;;;;;;;;4.00;4.00;;;;;;;;5057460;28;46939;-79
2021/07/28 06:51:17;;;;;;;;;5.50;2.75;;;;;;;;5057478;28;46988;-79
2021/07/28 06:53:43;;;;;;;;;2.25;2.00;;;;;;;;5057414;28;46892;-78
2021/07/28 06:56:11;;;;;;;;;4.00;3.00;;;;;;;;5057084;28;46901;-78
2021/07/28 06:58:36;;;;;;;;;4.75;3.50;;;;;;;;5038931;28;47045;-78
2021/07/28 07:01:02;;;;;;;;;5.75;4.00;;;;;;;;5057477;28;46823;-78
2021/07/28 07:03:27;;;;;;;;;2.75;2.00;;;;;;;;5057416;28;47181;-79
2021/07/28 07:05:52;;;;;;;;;4.00;3.75;;;;;;;;5057264;28;47145;-78
2021/07/28 07:08:18;;;;;;;;;3.75;3.75;;;;;;;;5056966;28;46917;-79
2021/07/28 07:10:43;;;;;;;;;2.00;2.00;;;;;;;;5057033;28;46783;-78
2021/07/28 07:13:09;;;;;;;;;2.50;2.50;;;;;;;;5056604;28;47126;-78
2021/07/28 07:15:34;;;;;;;;;3.75;2.50;;;;;;;;5056861;28;48010;-78
2021/07/28 07:17:59;;;;;;;;;2.50;2.50;;;;;;;;5057030;28;46921;-78
2021/07/28 07:20:24;;;;;;;;;1.50;1.50;;;;;;;;5063873;28;46799;-78
2021/07/28 07:22:50;;;;;;;;;3.75;3.75;;;;;;;;5064225;28;47329;-79
2021/07/28 07:25:15;;;;;;;;;2.50;2.50;;;;;;;;5058457;28;46748;-79
2021/07/28 07:27:42;;;;;;;;;6.00;3.00;;;;;;;;5060203;28;46868;-79
2021/07/28 07:30:08;;;;;;;;;3.75;2.50;;;;;;;;5060212;28;46907;-79
2021/07/28 07:32:33;;;;;;;;;4.00;3.25;;;;;;;;5060615;28;47040;-78
2021/07/28 07:34:59;;;;;;;;;1.50;1.50;;;;;;;;5072437;28;46838;-78
2021/07/28 07:37:24;;;;;;;;;4.00;3.00;;;;;;;;5060228;28;46940;-79
2021/07/28 07:39:50;;;;;;;;;4.00;3.50;;;;;;;;5042093;28;47102;-78
2021/07/28 07:42:15;;;;;;;;;2.25;2.25;;;;;;;;5060090;28;46963;-78
2021/07/28 07:44:43;;;;;;;;;2.50;2.50;;;;;;;;5060204;28;46928;-78
2021/07/28 07:47:08;;;;;;;;;4.25;4.25;;;;;;;;5060174;28;46946;-78
2021/07/28 07:49:34;;;;;;;;;3.00;3.00;;;;;;;;5060055;28;47144;-79
2021/07/28 07:51:59;;;;;;;;;1.50;1.50;;;;;;;;5060370;28;46755;-79
2021/07/28 07:54:25;;;;;;;;;4.75;4.75;;;;;;;;5041751;28;46924;-78
2021/07/28 07:56:51;;;;;;;;;3.25;3.25;;;;;;;;5059642;28;47080;-79
2021/07/28 07:59:16;;;;;;;;;3.75;2.50;;;;;;;;5059787;28;46922;-79
2021/07/28 08:01:41;;;;;;;;;4.25;4.25;;;;;;;;5060230;28;46980;-79
2021/07/28 08:04:07;;;;;;;;;3.50;3.00;;;;;;;;5059592;28;47046;-79
2021/07/28 08:06:32;;;;;;;;;3.25;3.25;;;;;;;;5059812;28;46806;-79
2021/07/28 08:08:58;;;;;;;;;3.25;2.75;;;;;;;;5059580;28;47223;-79
2021/07/28 08:11:23;;;;;;;;;2.00;2.00;;;;;;;;5059441;28;46926;-79
2021/07/28 08:13:49;;;;;;;;;3.75;2.50;;;;;;;;5059103;28;46905;-79
2021/07/28 08:16:16;;;;;;;;;4.75;3.75;;;;;;;;5059660;28;47009;-79
2021/07/28 08:18:41;;;;;;;;;4.50;3.75;;;;;;;;5041246;28;47028;-79
2021/07/28 08:21:08;;;;;;;;;4.00;4.00;;;;;;;;5047939;28;46786;-79
2021/07/28 08:23:34;;;;;;;;;3.50;3.50;;;;;;;;5060087;28;47227;-79
2021/07/28 08:25:59;;;;;;;;;5.50;4.00;;;;;;;;5059434;28;47004;-79
2021/07/28 08:28:24;;;;;;;;;3.50;3.00;;;;;;;;5059203;28;47132;-78
2021/07/28 08:30:50;;;;;;;;;3.75;3.75;;;;;;;;5059690;28;46787;-78
2021/07/28 08:33:15;;;;;;;;;4.75;4.75;;;;;;;;5046559;28;48640;-78
2021/07/28 08:35:40;;;;;;;;;2.75;2.50;;;;;;;;5067194;28;46793;-79
2021/07/28 08:38:06;;;;;;;;;4.00;3.00;;;;;;;;5040484;28;47078;-79
2021/07/28 08:40:31;;;;;;;;;4.00;2.75;;;;;;;;5059716;28;47147;-78
2021/07/28 08:42:59;;;;;;;;;1.75;1.75;;;;;;;;5058644;28;47024;-78
2021/07/28 08:45:24;;;;;;;;;3.75;2.25;;;;;;;;5059213;28;47043;-78
2021/07/28 08:47:50;;;;;;;;;2.00;2.00;;;;;;;;5058968;28;47026;-77
2021/07/28 08:50:15;;;;;;;;;4.00;3.00;;;;;;;;5059346;28;46911;-78
2021/07/28 08:52:40;;;;;;;;;3.25;3.00;;;;;;;;5058854;28;46831;-77
2021/07/28 08:55:07;;;;;;;;;3.25;3.25;;;;;;;;5040796;28;46913;-78
2021/07/28 08:57:33;;;;;;;;;4.75;3.50;;;;;;;;5040246;28;47177;-78
2021/07/28 08:59:59;;;;;;;;;3.75;3.75;;;;;;;;5059392;28;46912;-78
2021/07/28 09:02:24;;;;;;;;;3.50;3.50;;;;;;;;5058613;28;46850;-78
2021/07/28 09:04:49;;;;;;;;;1.75;1.75;;;;;;;;5059106;28;46893;-78
2021/07/28 09:07:15;;;;;;;;;4.50;2.50;;;;;;;;5058654;28;46704;-78
2021/07/28 09:09:54;;;;;;;;;2.75;2.25;;;;;;;;5059127;28;46855;-78
2021/07/28 09:12:19;;;;;;;;;2.50;2.50;;;;;;;;5065360;28;48821;-78
2021/07/28 09:14:52;;;;;;;;;3.75;2.25;;;;;;;;5078914;28;47057;-78
2021/07/28 09:17:20;;;;;;;;;5.50;4.25;;;;;;;;5079194;28;46991;-78
2021/07/28 09:19:46;;;;;;;;;3.50;3.50;;;;;;;;5079024;28;47143;-78
2021/07/28 09:22:13;;;;;;;;;3.75;3.25;;;;;;;;5070799;28;46907;-78
2021/07/28 09:24:39;;;;;;;;;3.00;3.00;;;;;;;;5040262;28;47819;-78
2021/07/28 09:27:04;;;;;;;;;5.25;3.75;;;;;;;;5058677;28;46760;-78
2021/07/28 09:29:30;;;;;;;;;4.00;4.00;;;;;;;;5058968;28;46981;-78
2021/07/28 09:32:06;;;;;;;;;3.00;3.00;;;;;;;;5058969;28;47233;-78
2021/07/28 09:34:33;;;;;;;;;3.25;3.25;;;;;;;;5070978;28;47095;-78
2021/07/28 09:36:59;;;;;;;;;2.75;2.00;;;;;;;;5058906;28;46932;-78
2021/07/28 09:39:25;;;;;;;;;2.00;1.50;;;;;;;;5058876;28;47071;-77
2021/07/28 09:41:53;;;;;;;;;4.00;3.50;;;;;;;;5058300;28;47766;-78
2021/07/28 09:44:25;;;;;;;;;3.50;3.00;;;;;;;;5058552;28;46868;-78
2021/07/28 09:47:00;;;;;;;;;3.00;3.00;;;;;;;;5058830;28;47061;-78
2021/07/28 09:49:26;;;;;;;;;3.00;2.25;;;;;;;;5058556;28;47002;-77
2021/07/28 09:51:51;;;;;;;;;3.00;3.00;;;;;;;;5058522;28;47736;-78
2021/07/28 09:54:16;;;;;;;;;3.25;2.00;;;;;;;;5040199;28;47109;-77
2021/07/28 09:56:47;;;;;;;;;4.50;3.00;;;;;;;;5040036;28;46878;-78
2021/07/28 09:59:13;;;;;;;;;6.00;6.00;;;;;;;;5058415;28;47058;-78
2021/07/28 10:01:38;;;;;;;;;4.00;3.75;;;;;;;;5040143;28;48605;-78
2021/07/28 10:04:08;;;;;;;;;3.00;3.00;;;;;;;;5058197;28;46948;-78
2021/07/28 10:06:40;;;;;;;;;3.25;3.25;;;;;;;;5058431;28;46860;-77
2021/07/28 10:09:26;;;;;;;;;2.25;2.00;;;;;;;;5058678;28;47060;-78
2021/07/28 10:11:52;;;;;;;;;4.00;3.00;;;;;;;;5056075;28;47041;-78
2021/07/28 10:14:19;;;;;;;;;6.00;2.00;;;;;;;;5039857;28;46778;-78
2021/07/28 10:16:45;;;;;;;;;4.50;2.75;;;;;;;;5058184;28;47014;-78
2021/07/28 10:19:10;;;;;;;;;5.00;3.50;;;;;;;;5058352;28;46722;-78
2021/07/28 10:21:36;;;;;;;;;5.00;3.00;;;;;;;;5065728;28;47103;-78
2021/07/28 10:24:03;;;;;;;;;2.25;2.25;;;;;;;;5058316;28;47145;-78
2021/07/28 10:26:41;;;;;;;;;3.00;3.00;;;;;;;;5039538;28;47111;-78
2021/07/28 10:29:09;;;;;;;;;2.50;2.50;;;;;;;;5058219;28;46889;-78
2021/07/28 10:31:48;;;;;;;;;1.75;1.75;;;;;;;;5057784;28;47026;-78
2021/07/28 10:34:24;;;;;;;;;2.50;2.50;;;;;;;;5071255;27;47149;-78
2021/07/28 10:36:52;;;;;;;;;2.00;2.00;;;;;;;;5058175;28;47147;-78
2021/07/28 10:39:32;;;;;;;;;4.00;2.00;;;;;;;;5057974;28;47111;-78
2021/07/28 10:41:58;;;;;;;;;2.00;2.00;;;;;;;;5057584;28;47077;-78
2021/07/28 10:44:23;;;;;;;;;2.75;2.25;;;;;;;;5057597;28;47136;-78
2021/07/28 10:46:55;;;;;;;;;1.00;1.00;;;;;;;;5058096;28;47102;-78
2021/07/28 10:49:33;;;;;;;;;2.00;2.00;;;;;;;;5039641;28;47141;-78
2021/07/28 10:51:58;;;;;;;;;2.00;2.00;;;;;;;;5057695;28;47126;-78
2021/07/28 10:54:42;;;;;;;;;2.50;1.50;;;;;;;;5057816;28;46897;-77
2021/07/28 10:57:08;;;;;;;;;2.00;2.00;;;;;;;;5057422;28;46958;-78
2021/07/28 10:59:42;;;;;;;;;2.00;2.00;;;;;;;;5058469;28;46901;-78
2021/07/28 11:02:08;;;;;;;;;2.50;2.00;;;;;;;;5061002;28;48241;-78
2021/07/28 11:04:33;;;;;;;;;2.00;2.00;;;;;;;;5042874;28;47019;-78
2021/07/28 11:06:58;;;;;;;;;4.00;3.00;;;;;;;;5060837;28;47161;-79
2021/07/28 11:09:25;;;;;;;;;2.25;2.25;;;;;;;;5060919;28;46823;-78
2021/07/28 11:11:50;;;;;;;;;1.50;1.25;;;;;;;;5060371;28;46857;-78
2021/07/28 11:14:16;;;;;;;;;2.00;2.00;;;;;;;;5060923;28;46865;-79
2021/07/28 11:16:49;;;;;;;;;2.00;2.00;;;;;;;;5060719;28;46940;-79
2021/07/28 11:19:14;;;;;;;;;1.25;1.00;;;;;;;;5061058;28;46871;-78
2021/07/28 11:21:39;;;;;;;;;5.00;3.00;;;;;;;;5067675;28;47992;-77
2021/07/28 11:24:06;;;;;;;;;2.00;2.00;;;;;;;;5060743;28;47005;-78
2021/07/28 11:26:33;;;;;;;;;2.00;2.00;;;;;;;;5060287;28;46981;-78
2021/07/28 11:29:01;;;;;;;;;1.50;1.00;;;;;;;;5060650;28;47304;-78
2021/07/28 11:31:28;;;;;;;;;4.50;2.25;;;;;;;;5060408;28;47848;-77
2021/07/28 11:34:03;;;;;;;;;1.00;1.00;;;;;;;;5071676;27;47098;-77
2021/07/28 11:36:29;;;;;;;;;3.75;3.00;;;;;;;;5061524;28;46838;-77
2021/07/28 11:38:54;;;;;;;;;2.00;2.00;;;;;;;;5060704;28;47328;-78
2021/07/28 11:41:23;;;;;;;;;3.25;2.00;;;;;;;;5060113;28;46930;-77
2021/07/28 11:43:48;;;;;;;;;1.75;1.75;;;;;;;;5060188;28;46883;-78
2021/07/28 11:46:17;;;;;;;;;2.00;2.00;;;;;;;;5060242;28;47358;-77
2021/07/28 11:48:46;;;;;;;;;1.25;1.25;;;;;;;;5060584;28;46830;-77
2021/07/28 11:51:25;;;;;;;;;2.00;1.75;;;;;;;;5059903;28;46895;-78
2021/07/28 11:53:51;;;;;;;;;2.50;2.00;;;;;;;;5060194;28;46932;-78
2021/07/28 11:56:17;;;;;;;;;3.25;2.00;;;;;;;;5059954;28;46854;-78
2021/07/28 11:58:46;;;;;;;;;2.00;2.00;;;;;;;;5060195;28;46864;-78
2021/07/28 12:01:19;;;;;;;;;2.50;2.50;;;;;;;;5060027;28;47816;-78
2021/07/28 12:03:57;;;;;;;;;1.75;1.00;;;;;;;;5041644;28;47033;-78
2021/07/28 12:06:30;;;;;;;;;3.75;2.00;;;;;;;;5060036;28;46905;-78
2021/07/28 12:09:09;;;;;;;;;2.00;2.00;;;;;;;;5059991;28;46965;-78
2021/07/28 12:11:53;;;;;;;;;4.00;1.50;;;;;;;;5057892;28;47788;-78
2021/07/28 12:14:25;;;;;;;;;2.75;2.75;;;;;;;;5059846;28;46910;-79
2021/07/28 12:16:54;;;;;;;;;2.00;1.75;;;;;;;;5059826;28;46958;-78
2021/07/28 12:19:23;;;;;;;;;2.00;2.00;;;;;;;;5060150;28;46806;-78
2021/07/28 12:21:52;;;;;;;;;3.00;1.25;;;;;;;;5067281;28;47089;-78
2021/07/28 12:24:28;;;;;;;;;3.25;2.00;;;;;;;;5060027;28;46977;-79
2021/07/28 12:26:56;;;;;;;;;2.00;2.00;;;;;;;;5059505;28;46851;-79
2021/07/28 12:29:37;;;;;;;;;2.00;2.00;;;;;;;;5059703;28;46889;-78
2021/07/28 12:32:16;;;;;;;;;4.75;3.50;;;;;;;;5059595;28;46766;-78
2021/07/28 12:34:41;;;;;;;;;2.25;2.25;;;;;;;;5073047;27;47098;-78
2021/07/28 12:37:24;;;;;;;;;2.00;2.00;;;;;;;;5059527;28;47115;-77
2021/07/28 12:39:53;;;;;;;;;2.00;1.25;;;;;;;;5041295;28;47307;-78
2021/07/28 12:42:19;;;;;;;;;2.00;2.00;;;;;;;;5059018;28;47064;-78
2021/07/28 12:44:44;;;;;;;;;2.00;2.00;;;;;;;;5059614;28;47021;-78
2021/07/28 12:47:09;;;;;;;;;2.00;1.75;;;;;;;;5059383;28;47187;-78
2021/07/28 12:49:34;;;;;;;;;3.00;2.00;;;;;;;;5059730;28;47090;-78
2021/07/28 12:52:00;;;;;;;;;4.00;3.00;;;;;;;;5059253;28;46978;-77
2021/07/28 12:54:25;;;;;;;;;3.00;3.00;;;;;;;;5059439;28;46963;-78
2021/07/28 12:56:50;;;;;;;;;2.00;2.00;;;;;;;;5059325;28;48371;-78
2021/07/28 12:59:16;;;;;;;;;3.00;1.50;;;;;;;;5059274;28;47100;-78
2021/07/28 13:01:41;;;;;;;;;2.75;2.75;;;;;;;;5059307;28;46873;-78
2021/07/28 13:04:07;;;;;;;;;2.00;2.00;;;;;;;;5059221;28;46928;-78
2021/07/28 13:06:33;;;;;;;;;2.00;2.00;;;;;;;;5059229;28;46817;-79
2021/07/28 13:08:58;;;;;;;;;2.00;2.00;;;;;;;;5059279;28;47198;-78
2021/07/28 13:11:23;;;;;;;;;1.25;1.00;;;;;;;;5058710;28;46874;-79
2021/07/28 13:13:49;;;;;;;;;2.25;2.00;;;;;;;;5058817;28;46891;-78
2021/07/28 13:16:14;;;;;;;;;2.00;2.00;;;;;;;;5059229;28;47008;-78
2021/07/28 13:18:39;;;;;;;;;3.25;2.00;;;;;;;;5059156;28;47075;-79
2021/07/28 13:21:05;;;;;;;;;1.25;1.25;;;;;;;;5046873;28;47202;-79
2021/07/28 13:23:30;;;;;;;;;2.00;2.00;;;;;;;;5041223;28;47780;-78
2021/07/28 13:25:56;;;;;;;;;2.25;2.25;;;;;;;;5058782;28;46942;-78
2021/07/28 13:28:22;;;;;;;;;2.00;2.00;;;;;;;;5058723;28;46850;-77
2021/07/28 13:30:47;;;;;;;;;2.00;2.00;;;;;;;;5058817;28;47070;-79
2021/07/28 13:33:12;;;;;;;;;2.25;2.25;;;;;;;;5063836;27;46897;-78
2021/07/28 13:35:38;;;;;;;;;2.00;2.00;;;;;;;;5066867;28;46995;-77
2021/07/28 13:38:04;;;;;;;;;1.00;1.00;;;;;;;;5058786;28;47192;-78
2021/07/28 13:40:29;;;;;;;;;2.00;2.00;;;;;;;;5058383;28;46945;-78
2021/07/28 13:42:54;;;;;;;;;2.50;2.00;;;;;;;;5058424;28;46926;-78
2021/07/28 13:45:20;;;;;;;;;1.25;1.25;;;;;;;;5058911;28;46913;-78
2021/07/28 13:47:48;;;;;;;;;3.00;3.00;;;;;;;;5058744;28;46913;-78
2021/07/28 13:50:18;;;;;;;;;1.00;1.00;;;;;;;;5040354;28;49475;-78
2021/07/28 13:52:44;;;;;;;;;2.25;2.25;;;;;;;;5058419;28;47017;-78
2021/07/28 13:55:10;;;;;;;;;2.00;2.00;;;;;;;;5058717;28;46979;-78
2021/07/28 13:57:35;;;;;;;;;1.75;1.75;;;;;;;;5058178;28;47215;-77
2021/07/28 14:00:00;;;;;;;;;2.25;2.25;;;;;;;;5058598;28;47058;-78
2021/07/28 14:02:26;;;;;;;;;2.00;2.00;;;;;;;;5058326;28;47030;-78
2021/07/28 14:04:52;;;;;;;;;2.00;2.00;;;;;;;;5058783;28;46877;-78
2021/07/28 14:07:17;;;;;;;;;2.00;2.00;;;;;;;;5040328;28;46751;-77
2021/07/28 14:09:43;;;;;;;;;2.00;1.25;;;;;;;;5058189;28;46870;-77
2021/07/28 14:12:08;;;;;;;;;2.75;2.75;;;;;;;;5057813;28;46900;-76
2021/07/28 14:14:35;;;;;;;;;3.00;3.00;;;;;;;;5058507;28;46918;-77
2021/07/28 14:17:01;;;;;;;;;2.75;2.75;;;;;;;;5058360;28;46797;-78
2021/07/28 14:19:27;;;;;;;;;4.00;4.00;;;;;;;;5058258;28;47084;-78
2021/07/28 14:21:53;;;;;;;;;2.00;1.25;;;;;;;;5065223;28;47409;-78
2021/07/28 14:24:18;;;;;;;;;2.00;2.00;;;;;;;;5058282;28;46928;-76
2021/07/28 14:26:43;;;;;;;;;2.00;2.00;;;;;;;;5039846;28;47330;-78
2021/07/28 14:29:09;;;;;;;;;3.00;2.75;;;;;;;;5039784;28;48458;-77
2021/07/28 14:31:34;;;;;;;;;4.00;2.00;;;;;;;;5057694;28;46818;-78
2021/07/28 14:34:00;;;;;;;;;3.00;2.00;;;;;;;;5069365;27;46917;-77
2021/07/28 14:36:25;;;;;;;;;2.00;2.00;;;;;;;;5059197;28;47005;-78
2021/07/28 14:38:50;;;;;;;;;2.75;2.25;;;;;;;;5057848;28;47169;-78
2021/07/28 14:41:20;;;;;;;;;5.75;3.00;;;;;;;;5057584;28;47130;-78